createdAt,value
2023-03-02T00:08:40.304Z,0
2023-03-02T00:14:02.694Z,0
2023-03-02T00:19:28.170Z,0
2023-03-02T00:24:50.788Z,0
2023-03-02T00:30:34.407Z,0
2023-03-02T00:35:57.488Z,0
2023-03-02T00:41:20.237Z,0
2023-03-02T00:46:43.184Z,0
2023-03-02T00:52:08.326Z,0
2023-03-02T00:57:30.901Z,0
2023-03-02T01:02:53.989Z,0
2023-03-02T01:08:16.348Z,0
2023-03-02T01:13:38.677Z,0
2023-03-02T01:19:08.565Z,0
2023-03-02T01:24:31.153Z,0
2023-03-02T01:29:53.618Z,0
2023-03-02T01:35:16.030Z,0
2023-03-02T01:40:38.663Z,0
2023-03-02T01:46:01.551Z,0
2023-03-02T01:51:24.501Z,0
2023-03-02T01:56:47.127Z,0
2023-03-02T02:02:10.003Z,0
2023-03-02T02:07:32.493Z,0
2023-03-02T02:12:54.626Z,0
2023-03-02T02:18:17.487Z,0
2023-03-02T02:23:40.099Z,0
2023-03-02T02:29:25.718Z,0
2023-03-02T02:34:48.484Z,0
2023-03-02T02:40:13.648Z,0
2023-03-02T02:45:36.362Z,0
2023-03-02T02:50:58.921Z,0
2023-03-02T02:56:24.356Z,0
2023-03-02T03:01:47.018Z,0
2023-03-02T03:07:09.221Z,0
2023-03-02T03:50:53.459Z,0
2023-03-02T03:56:17.625Z,0
2023-03-02T04:07:18.965Z,0
2023-03-02T04:12:44.388Z,0
2023-03-02T04:23:32.366Z,0
2023-03-02T04:28:57.257Z,0
2023-03-02T04:34:19.932Z,0
2023-03-02T04:39:44.779Z,0
2023-03-02T04:45:07.698Z,0
2023-03-02T04:50:33.036Z,0
2023-03-02T04:55:55.476Z,0
2023-03-02T05:01:18.406Z,0
2023-03-02T05:06:52.982Z,0
2023-03-02T05:12:15.641Z,0
2023-03-02T05:17:38.020Z,0
2023-03-02T05:23:00.734Z,0
2023-03-02T05:28:23.314Z,0
2023-03-02T05:33:45.950Z,0
2023-03-02T05:39:11.242Z,0
2023-03-02T05:44:33.759Z,0
2023-03-02T05:50:01.972Z,0
2023-03-02T05:55:27.026Z,0
2023-03-02T06:00:49.983Z,0
2023-03-02T06:06:12.818Z,4
2023-03-02T06:11:35.218Z,15
2023-03-02T06:16:57.976Z,26
2023-03-02T06:22:20.600Z,33.2
2023-03-02T06:28:00.290Z,35.2
2023-03-02T06:33:23.422Z,42.6
2023-03-02T06:38:46.746Z,59.3
2023-03-02T06:44:26.952Z,80.8
2023-03-02T06:49:50.340Z,90.1
2023-03-02T06:55:13.186Z,107.9
2023-03-02T07:00:36.235Z,120.1
2023-03-02T07:05:58.753Z,125.9
2023-03-02T07:11:21.681Z,131
2023-03-02T07:16:44.490Z,142.4
2023-03-02T07:22:07.097Z,147.9
2023-03-02T07:27:29.713Z,153
2023-03-02T07:32:52.269Z,161.8
2023-03-02T07:38:16.653Z,192.2
2023-03-02T07:43:39.275Z,198.9
2023-03-02T07:49:01.772Z,253.4
2023-03-02T07:54:24.379Z,236.6
2023-03-02T07:59:49.884Z,229.4
2023-03-02T08:05:12.454Z,420.8
2023-03-02T08:10:35.236Z,288
2023-03-02T08:15:58.050Z,531.2
2023-03-02T08:21:34.154Z,350.9
2023-03-02T08:26:57.095Z,302.3
2023-03-02T08:32:19.765Z,520.9
2023-03-02T08:37:42.235Z,1412.6
2023-03-02T08:43:20.197Z,2370.7
2023-03-02T08:48:43.791Z,1711.2
2023-03-02T08:54:06.498Z,2039.3
2023-03-02T08:59:29.859Z,1755.8
2023-03-02T09:04:59.360Z,1933.8
2023-03-02T09:10:22.511Z,2081.7
2023-03-02T09:16:21.860Z,2082.6
2023-03-02T09:21:47.138Z,2340.7
2023-03-02T09:27:10.066Z,2301.2
2023-03-02T09:32:42.408Z,2367.8
2023-03-02T09:38:14.687Z,2243.8
2023-03-02T09:43:37.764Z,2298.5
2023-03-02T09:49:11.934Z,2307.6
2023-03-02T09:54:35.141Z,2382.5
2023-03-02T10:00:21.884Z,2506.9
2023-03-02T10:06:00.091Z,2705.1
2023-03-02T10:11:22.992Z,2662.5
2023-03-02T10:17:06.592Z,2842.5
2023-03-02T10:22:29.658Z,2901.1
2023-03-02T10:27:52.626Z,2761.1
2023-03-02T10:33:15.221Z,2786.5
2023-03-02T10:38:37.820Z,2435.2
2023-03-02T10:44:24.978Z,2414.5
2023-03-02T10:49:47.811Z,2644
2023-03-02T10:55:10.434Z,2484.5
2023-03-02T11:00:36.561Z,2949.4
2023-03-02T11:05:59.190Z,2622.3
2023-03-02T11:11:22.387Z,2899.8
2023-03-02T11:16:45.411Z,2484.7
2023-03-02T11:22:11.249Z,3043.3
2023-03-02T11:27:34.097Z,3205
2023-03-02T11:32:59.123Z,3064.4
2023-03-02T11:38:59.207Z,3068.1
2023-03-02T11:44:22.676Z,2693.7
2023-03-02T11:49:47.712Z,2833.9
2023-03-02T11:55:10.503Z,3073.1
2023-03-02T12:00:33.287Z,3195.7
2023-03-02T12:05:56.133Z,2848.9
2023-03-02T12:11:26.157Z,3209.3
2023-03-02T12:16:49.709Z,3199.3
2023-03-02T12:22:12.677Z,3085.5
2023-03-02T12:27:35.691Z,3034.7
2023-03-02T12:32:58.748Z,2704.5
2023-03-02T12:38:22.035Z,2871.8
2023-03-02T12:50:06.060Z,2663
2023-03-02T12:55:29.877Z,2929.1
2023-03-02T13:00:52.678Z,2485.4
2023-03-02T13:06:15.009Z,2598.5
2023-03-02T13:11:37.629Z,2298.9
2023-03-02T13:17:00.639Z,2353.4
2023-03-02T13:22:23.477Z,2172.3
2023-03-02T13:27:46.471Z,1980.3
2023-03-02T13:33:21.199Z,2041.2
2023-03-02T13:44:09.565Z,2101.6
2023-03-02T13:49:32.493Z,1874.6
2023-03-02T13:54:55.769Z,1920.9
2023-03-02T14:00:18.597Z,1775.7
2023-03-02T14:05:44.268Z,1796.6
2023-03-02T14:11:06.786Z,1654.9
2023-03-02T14:16:29.994Z,1813.4
2023-03-02T14:21:52.270Z,1722.2
2023-03-02T14:27:15.503Z,1578.3
2023-03-02T14:32:37.648Z,1555.6
2023-03-02T14:38:01.021Z,1375.4
2023-03-02T14:43:23.986Z,1343.5
2023-03-02T14:48:46.322Z,1264.3
2023-03-02T14:54:08.696Z,1278.1
2023-03-02T14:59:30.996Z,631
2023-03-02T15:04:54.271Z,202.2
2023-03-02T15:10:17.199Z,195.2
2023-03-02T15:15:41.665Z,177.8
2023-03-02T15:21:04.350Z,161.8
2023-03-02T15:26:27.113Z,140
2023-03-02T15:31:55.848Z,124.1
2023-03-02T15:37:18.364Z,115.1
2023-03-02T15:48:16.336Z,102.3
2023-03-02T15:53:38.936Z,93.1
2023-03-02T15:59:01.691Z,87
2023-03-02T16:04:24.456Z,85.6
2023-03-02T16:09:47.170Z,82.2
2023-03-02T16:15:09.728Z,80
2023-03-02T16:20:33.748Z,74.6
2023-03-02T16:25:56.344Z,72.2
2023-03-02T16:31:19.174Z,71.7
2023-03-02T16:36:41.809Z,62.5
2023-03-02T16:47:32.838Z,50.3
2023-03-02T16:52:59.364Z,51.4
2023-03-02T16:58:24.744Z,47.6
2023-03-02T17:03:47.563Z,44.1
2023-03-02T17:09:14.104Z,37.4
2023-03-02T17:14:36.714Z,31.1
2023-03-02T17:19:59.180Z,22
2023-03-02T17:25:21.818Z,11
2023-03-02T17:30:44.757Z,3
2023-03-02T17:36:24.611Z,0
2023-03-02T17:41:47.374Z,0
2023-03-02T17:47:17.230Z,0
2023-03-02T17:52:40.065Z,0
2023-03-02T17:58:02.750Z,0
2023-03-02T18:03:25.607Z,0
2023-03-02T18:08:50.418Z,0
2023-03-02T18:14:13.180Z,0
2023-03-02T18:19:35.991Z,0
2023-03-02T18:24:58.482Z,0
2023-03-02T18:30:26.240Z,0
2023-03-02T18:35:53.919Z,0
2023-03-02T18:41:29.256Z,0
2023-03-02T18:46:52.362Z,0
2023-03-02T18:52:14.936Z,0
2023-03-02T18:57:44.891Z,0
2023-03-02T19:03:07.686Z,0
2023-03-02T19:08:30.078Z,0
2023-03-02T19:14:04.561Z,0
2023-03-02T19:19:27.311Z,0
2023-03-02T19:24:49.619Z,0
2023-03-02T19:30:12.029Z,0
2023-03-02T19:35:34.921Z,0
2023-03-02T19:40:57.459Z,0
2023-03-02T19:46:37.343Z,0
2023-03-02T19:52:00.271Z,0
2023-03-02T19:57:23.012Z,0
2023-03-02T20:02:46.007Z,0
2023-03-02T20:08:08.618Z,0
2023-03-02T20:13:38.320Z,0
2023-03-02T20:19:22.063Z,0
2023-03-02T20:24:44.726Z,0
2023-03-02T20:30:07.417Z,0
2023-03-02T20:35:30.229Z,0
2023-03-02T20:40:52.854Z,0
2023-03-02T20:46:15.422Z,0
2023-03-02T20:51:43.108Z,0
2023-03-02T20:57:05.939Z,0
2023-03-02T21:02:28.842Z,0
2023-03-02T21:07:51.521Z,0
2023-03-02T21:18:40.037Z,0
2023-03-02T21:24:02.704Z,0
2023-03-02T21:29:25.198Z,0
2023-03-02T21:34:47.733Z,0
2023-03-02T21:40:12.842Z,0
2023-03-02T21:45:40.838Z,0
2023-03-02T21:51:03.355Z,0
2023-03-02T21:56:26.081Z,0
2023-03-02T22:01:54.145Z,0
2023-03-02T22:07:16.904Z,0
2023-03-02T22:12:58.219Z,0
2023-03-02T22:18:21.614Z,0
2023-03-02T22:23:43.967Z,0
2023-03-02T22:29:06.344Z,0
2023-03-02T22:34:28.946Z,0
2023-03-02T22:39:50.984Z,0
2023-03-02T22:45:13.405Z,0
2023-03-02T22:50:44.916Z,0
2023-03-02T22:56:07.645Z,0
2023-03-02T23:01:30.074Z,0
2023-03-02T23:06:52.716Z,0
2023-03-02T23:12:15.331Z,0
2023-03-02T23:17:45.113Z,0
2023-03-02T23:23:08.201Z,0
2023-03-02T23:28:32.932Z,0
2023-03-02T23:33:55.821Z,0
2023-03-02T23:39:18.482Z,0
2023-03-02T23:44:41.145Z,0
2023-03-02T23:50:11.021Z,0
2023-03-02T23:55:33.608Z,0
